sensor_id;sensor_type;location;lat;lon;timestamp;P1;durP1;ratioP1;P2;durP2;ratioP2
27666;SDS011;15074;50.940;5.282;2022-12-10T00:01:10;80.10;;;26.60;;
27666;SDS011;15074;50.940;5.282;2022-12-10T00:03:41;82.70;;;28.02;;
27666;SDS011;15074;50.940;5.282;2022-12-10T00:06:08;73.38;;;28.35;;
27666;SDS011;15074;50.940;5.282;2022-12-10T00:08:36;77.15;;;29.10;;
27666;SDS011;15074;50.940;5.282;2022-12-10T00:11:02;72.55;;;25.95;;
27666;SDS011;15074;50.940;5.282;2022-12-10T00:13:30;75.38;;;28.15;;
27666;SDS011;15074;50.940;5.282;2022-12-10T00:15:55;71.78;;;28.25;;
27666;SDS011;15074;50.940;5.282;2022-12-10T00:18:24;81.68;;;27.10;;
27666;SDS011;15074;50.940;5.282;2022-12-10T00:20:50;71.13;;;26.70;;
27666;SDS011;15074;50.940;5.282;2022-12-10T00:23:15;68.30;;;23.90;;
27666;SDS011;15074;50.940;5.282;2022-12-10T00:25:41;67.80;;;25.30;;
27666;SDS011;15074;50.940;5.282;2022-12-10T00:28:07;62.85;;;25.70;;
27666;SDS011;15074;50.940;5.282;2022-12-10T00:30:33;62.58;;;25.15;;
27666;SDS011;15074;50.940;5.282;2022-12-10T00:32:59;70.97;;;27.27;;
27666;SDS011;15074;50.940;5.282;2022-12-10T00:35:24;78.82;;;26.52;;
27666;SDS011;15074;50.940;5.282;2022-12-10T00:37:50;81.30;;;28.15;;
27666;SDS011;15074;50.940;5.282;2022-12-10T00:40:16;79.05;;;27.45;;
27666;SDS011;15074;50.940;5.282;2022-12-10T00:45:45;76.88;;;27.25;;
27666;SDS011;15074;50.940;5.282;2022-12-10T00:48:10;78.78;;;28.00;;
27666;SDS011;15074;50.940;5.282;2022-12-10T00:50:36;76.28;;;26.90;;
27666;SDS011;15074;50.940;5.282;2022-12-10T00:53:01;84.43;;;28.27;;
27666;SDS011;15074;50.940;5.282;2022-12-10T00:55:27;81.65;;;29.50;;
27666;SDS011;15074;50.940;5.282;2022-12-10T00:57:53;81.53;;;28.80;;
27666;SDS011;15074;50.940;5.282;2022-12-10T01:00:18;73.88;;;27.40;;
27666;SDS011;15074;50.940;5.282;2022-12-10T01:02:44;79.15;;;28.63;;
27666;SDS011;15074;50.940;5.282;2022-12-10T01:05:10;72.43;;;27.10;;
27666;SDS011;15074;50.940;5.282;2022-12-10T01:07:39;72.43;;;26.08;;
27666;SDS011;15074;50.940;5.282;2022-12-10T01:10:04;82.57;;;29.45;;
27666;SDS011;15074;50.940;5.282;2022-12-10T01:12:30;85.63;;;28.92;;
27666;SDS011;15074;50.940;5.282;2022-12-10T01:14:56;82.93;;;29.42;;
27666;SDS011;15074;50.940;5.282;2022-12-10T01:17:21;79.47;;;29.35;;
27666;SDS011;15074;50.940;5.282;2022-12-10T01:19:47;86.40;;;30.90;;
27666;SDS011;15074;50.940;5.282;2022-12-10T01:22:12;88.38;;;32.67;;
27666;SDS011;15074;50.940;5.282;2022-12-10T01:24:38;87.80;;;32.20;;
27666;SDS011;15074;50.940;5.282;2022-12-10T01:27:04;84.05;;;30.70;;
27666;SDS011;15074;50.940;5.282;2022-12-10T01:29:29;76.45;;;29.48;;
27666;SDS011;15074;50.940;5.282;2022-12-10T01:31:56;66.25;;;26.77;;
27666;SDS011;15074;50.940;5.282;2022-12-10T01:34:22;82.28;;;29.63;;
27666;SDS011;15074;50.940;5.282;2022-12-10T01:36:53;74.43;;;28.48;;
27666;SDS011;15074;50.940;5.282;2022-12-10T01:39:20;84.40;;;27.83;;
27666;SDS011;15074;50.940;5.282;2022-12-10T01:41:48;69.75;;;27.00;;
27666;SDS011;15074;50.940;5.282;2022-12-10T01:46:46;71.32;;;26.33;;
27666;SDS011;15074;50.940;5.282;2022-12-10T01:49:18;74.15;;;28.40;;
27666;SDS011;15074;50.940;5.282;2022-12-10T01:51:46;95.85;;;34.38;;
27666;SDS011;15074;50.940;5.282;2022-12-10T01:54:17;80.93;;;28.80;;
27666;SDS011;15074;50.940;5.282;2022-12-10T01:56:51;67.18;;;24.38;;
27666;SDS011;15074;50.940;5.282;2022-12-10T01:59:25;67.93;;;25.38;;
27666;SDS011;15074;50.940;5.282;2022-12-10T02:01:54;73.45;;;27.60;;
27666;SDS011;15074;50.940;5.282;2022-12-10T02:04:51;76.90;;;28.05;;
27666;SDS011;15074;50.940;5.282;2022-12-10T02:13:17;69.75;;;26.20;;
27666;SDS011;15074;50.940;5.282;2022-12-10T02:15:52;70.78;;;26.15;;
27666;SDS011;15074;50.940;5.282;2022-12-10T02:18:37;67.20;;;25.58;;
27666;SDS011;15074;50.940;5.282;2022-12-10T02:21:10;82.80;;;26.80;;
27666;SDS011;15074;50.940;5.282;2022-12-10T02:23:57;65.70;;;26.00;;
27666;SDS011;15074;50.940;5.282;2022-12-10T02:26:41;67.93;;;26.70;;
27666;SDS011;15074;50.940;5.282;2022-12-10T02:31:48;62.80;;;25.05;;
27666;SDS011;15074;50.940;5.282;2022-12-10T02:34:43;67.43;;;25.13;;
27666;SDS011;15074;50.940;5.282;2022-12-10T02:37:24;69.40;;;23.85;;
27666;SDS011;15074;50.940;5.282;2022-12-10T02:40:17;66.15;;;25.55;;
27666;SDS011;15074;50.940;5.282;2022-12-10T02:42:48;55.95;;;22.85;;
27666;SDS011;15074;50.940;5.282;2022-12-10T02:45:15;70.40;;;26.23;;
27666;SDS011;15074;50.940;5.282;2022-12-10T02:47:42;65.60;;;25.77;;
27666;SDS011;15074;50.940;5.282;2022-12-10T02:50:09;74.22;;;26.23;;
27666;SDS011;15074;50.940;5.282;2022-12-10T02:52:37;62.40;;;24.63;;
27666;SDS011;15074;50.940;5.282;2022-12-10T02:55:03;70.82;;;26.80;;
27666;SDS011;15074;50.940;5.282;2022-12-10T02:57:32;67.88;;;26.17;;
27666;SDS011;15074;50.940;5.282;2022-12-10T03:00:18;67.28;;;25.45;;
27666;SDS011;15074;50.940;5.282;2022-12-10T03:13:11;81.95;;;27.50;;
27666;SDS011;15074;50.940;5.282;2022-12-10T03:15:40;80.93;;;26.45;;
27666;SDS011;15074;50.940;5.282;2022-12-10T03:18:07;78.72;;;26.05;;
27666;SDS011;15074;50.940;5.282;2022-12-10T03:20:39;80.88;;;26.23;;
27666;SDS011;15074;50.940;5.282;2022-12-10T03:23:08;77.28;;;25.05;;
27666;SDS011;15074;50.940;5.282;2022-12-10T03:25:37;87.57;;;27.13;;
27666;SDS011;15074;50.940;5.282;2022-12-10T03:28:04;84.45;;;26.55;;
27666;SDS011;15074;50.940;5.282;2022-12-10T03:30:30;76.15;;;25.95;;
27666;SDS011;15074;50.940;5.282;2022-12-10T03:32:58;82.75;;;27.52;;
27666;SDS011;15074;50.940;5.282;2022-12-10T03:35:24;87.07;;;26.17;;
27666;SDS011;15074;50.940;5.282;2022-12-10T03:37:50;79.72;;;27.33;;
27666;SDS011;15074;50.940;5.282;2022-12-10T03:40:17;79.78;;;25.75;;
27666;SDS011;15074;50.940;5.282;2022-12-10T03:42:46;79.82;;;27.15;;
27666;SDS011;15074;50.940;5.282;2022-12-10T03:45:12;84.75;;;30.00;;
27666;SDS011;15074;50.940;5.282;2022-12-10T03:47:38;79.22;;;28.60;;
27666;SDS011;15074;50.940;5.282;2022-12-10T03:50:05;92.32;;;28.00;;
27666;SDS011;15074;50.940;5.282;2022-12-10T03:52:31;79.65;;;28.63;;
27666;SDS011;15074;50.940;5.282;2022-12-10T03:54:57;85.45;;;27.13;;
27666;SDS011;15074;50.940;5.282;2022-12-10T03:57:22;85.68;;;28.35;;
27666;SDS011;15074;50.940;5.282;2022-12-10T03:59:48;77.97;;;25.15;;
27666;SDS011;15074;50.940;5.282;2022-12-10T04:02:14;91.22;;;28.42;;
27666;SDS011;15074;50.940;5.282;2022-12-10T04:04:43;82.78;;;26.45;;
27666;SDS011;15074;50.940;5.282;2022-12-10T04:07:08;83.05;;;26.75;;
27666;SDS011;15074;50.940;5.282;2022-12-10T04:09:34;78.95;;;25.95;;
27666;SDS011;15074;50.940;5.282;2022-12-10T04:12:00;82.32;;;27.10;;
27666;SDS011;15074;50.940;5.282;2022-12-10T04:14:26;82.18;;;28.80;;
27666;SDS011;15074;50.940;5.282;2022-12-10T04:17:11;65.18;;;23.85;;
27666;SDS011;15074;50.940;5.282;2022-12-10T04:19:36;75.82;;;24.60;;
27666;SDS011;15074;50.940;5.282;2022-12-10T04:22:02;70.28;;;23.83;;
27666;SDS011;15074;50.940;5.282;2022-12-10T04:24:55;68.43;;;23.92;;
27666;SDS011;15074;50.940;5.282;2022-12-10T04:27:39;79.53;;;25.10;;
27666;SDS011;15074;50.940;5.282;2022-12-10T04:30:06;70.55;;;25.10;;
27666;SDS011;15074;50.940;5.282;2022-12-10T04:32:33;76.07;;;26.30;;
27666;SDS011;15074;50.940;5.282;2022-12-10T04:34:59;80.15;;;26.10;;
27666;SDS011;15074;50.940;5.282;2022-12-10T04:40:09;81.45;;;25.17;;
27666;SDS011;15074;50.940;5.282;2022-12-10T04:42:35;79.03;;;25.17;;
27666;SDS011;15074;50.940;5.282;2022-12-10T04:45:01;83.25;;;25.85;;
27666;SDS011;15074;50.940;5.282;2022-12-10T04:47:27;85.47;;;26.40;;
27666;SDS011;15074;50.940;5.282;2022-12-10T04:49:52;77.78;;;28.40;;
27666;SDS011;15074;50.940;5.282;2022-12-10T04:52:18;77.03;;;24.75;;
27666;SDS011;15074;50.940;5.282;2022-12-10T04:54:46;80.63;;;26.30;;
27666;SDS011;15074;50.940;5.282;2022-12-10T04:57:11;85.95;;;26.65;;
27666;SDS011;15074;50.940;5.282;2022-12-10T04:59:38;81.93;;;25.25;;
27666;SDS011;15074;50.940;5.282;2022-12-10T05:02:15;89.55;;;26.90;;
27666;SDS011;15074;50.940;5.282;2022-12-10T05:04:40;82.28;;;26.35;;
27666;SDS011;15074;50.940;5.282;2022-12-10T05:07:06;80.70;;;26.45;;
27666;SDS011;15074;50.940;5.282;2022-12-10T05:09:32;81.13;;;27.20;;
27666;SDS011;15074;50.940;5.282;2022-12-10T05:11:57;75.43;;;26.20;;
27666;SDS011;15074;50.940;5.282;2022-12-10T05:14:23;93.40;;;28.02;;
27666;SDS011;15074;50.940;5.282;2022-12-10T05:16:50;79.93;;;24.10;;
27666;SDS011;15074;50.940;5.282;2022-12-10T05:19:16;78.43;;;26.02;;
27666;SDS011;15074;50.940;5.282;2022-12-10T05:21:44;78.25;;;26.27;;
27666;SDS011;15074;50.940;5.282;2022-12-10T05:24:32;81.20;;;25.17;;
27666;SDS011;15074;50.940;5.282;2022-12-10T05:26:58;90.30;;;27.40;;
27666;SDS011;15074;50.940;5.282;2022-12-10T05:29:24;81.28;;;27.63;;
27666;SDS011;15074;50.940;5.282;2022-12-10T05:31:49;78.85;;;24.70;;
27666;SDS011;15074;50.940;5.282;2022-12-10T05:34:15;74.72;;;25.50;;
27666;SDS011;15074;50.940;5.282;2022-12-10T05:36:55;78.20;;;26.73;;
27666;SDS011;15074;50.940;5.282;2022-12-10T05:39:22;80.80;;;25.58;;
27666;SDS011;15074;50.940;5.282;2022-12-10T05:41:48;78.97;;;24.38;;
27666;SDS011;15074;50.940;5.282;2022-12-10T05:44:14;77.28;;;26.88;;
27666;SDS011;15074;50.940;5.282;2022-12-10T05:46:55;78.97;;;23.95;;
27666;SDS011;15074;50.940;5.282;2022-12-10T05:52:05;86.38;;;28.27;;
27666;SDS011;15074;50.940;5.282;2022-12-10T05:57:16;72.70;;;24.10;;
27666;SDS011;15074;50.940;5.282;2022-12-10T05:59:41;73.32;;;23.75;;
27666;SDS011;15074;50.940;5.282;2022-12-10T06:02:08;81.90;;;25.35;;
27666;SDS011;15074;50.940;5.282;2022-12-10T06:04:33;67.85;;;23.85;;
27666;SDS011;15074;50.940;5.282;2022-12-10T06:06:59;75.18;;;25.63;;
27666;SDS011;15074;50.940;5.282;2022-12-10T06:09:38;70.75;;;23.70;;
27666;SDS011;15074;50.940;5.282;2022-12-10T06:12:03;73.35;;;25.35;;
27666;SDS011;15074;50.940;5.282;2022-12-10T06:14:29;83.63;;;25.13;;
27666;SDS011;15074;50.940;5.282;2022-12-10T06:16:55;69.57;;;23.63;;
27666;SDS011;15074;50.940;5.282;2022-12-10T06:19:20;70.40;;;25.17;;
27666;SDS011;15074;50.940;5.282;2022-12-10T06:21:58;81.28;;;24.92;;
27666;SDS011;15074;50.940;5.282;2022-12-10T06:27:08;74.20;;;24.55;;
27666;SDS011;15074;50.940;5.282;2022-12-10T06:29:33;84.25;;;25.23;;
27666;SDS011;15074;50.940;5.282;2022-12-10T06:32:08;71.60;;;24.77;;
27666;SDS011;15074;50.940;5.282;2022-12-10T06:37:02;89.43;;;26.02;;
27666;SDS011;15074;50.940;5.282;2022-12-10T06:39:27;86.57;;;24.83;;
27666;SDS011;15074;50.940;5.282;2022-12-10T06:41:53;92.45;;;25.85;;
27666;SDS011;15074;50.940;5.282;2022-12-10T06:44:19;90.18;;;25.30;;
27666;SDS011;15074;50.940;5.282;2022-12-10T06:46:44;88.20;;;25.08;;
27666;SDS011;15074;50.940;5.282;2022-12-10T06:49:17;83.38;;;25.02;;
27666;SDS011;15074;50.940;5.282;2022-12-10T06:51:42;89.60;;;25.30;;
27666;SDS011;15074;50.940;5.282;2022-12-10T06:54:08;92.95;;;27.65;;
27666;SDS011;15074;50.940;5.282;2022-12-10T06:56:34;88.72;;;25.00;;
27666;SDS011;15074;50.940;5.282;2022-12-10T06:58:59;87.03;;;23.33;;
27666;SDS011;15074;50.940;5.282;2022-12-10T07:01:29;91.22;;;25.92;;
27666;SDS011;15074;50.940;5.282;2022-12-10T07:03:55;98.82;;;27.30;;
27666;SDS011;15074;50.940;5.282;2022-12-10T07:06:21;94.80;;;27.10;;
27666;SDS011;15074;50.940;5.282;2022-12-10T07:08:48;95.03;;;28.73;;
27666;SDS011;15074;50.940;5.282;2022-12-10T07:11:15;92.50;;;26.50;;
27666;SDS011;15074;50.940;5.282;2022-12-10T07:13:45;104.78;;;27.80;;
27666;SDS011;15074;50.940;5.282;2022-12-10T07:16:30;92.53;;;29.60;;
27666;SDS011;15074;50.940;5.282;2022-12-10T07:18:58;90.63;;;27.95;;
27666;SDS011;15074;50.940;5.282;2022-12-10T07:21:35;83.65;;;25.35;;
27666;SDS011;15074;50.940;5.282;2022-12-10T07:24:06;97.60;;;27.02;;
27666;SDS011;15074;50.940;5.282;2022-12-10T07:26:36;94.50;;;27.17;;
27666;SDS011;15074;50.940;5.282;2022-12-10T07:29:04;94.53;;;27.30;;
27666;SDS011;15074;50.940;5.282;2022-12-10T07:31:38;86.30;;;26.45;;
27666;SDS011;15074;50.940;5.282;2022-12-10T07:34:03;96.03;;;25.88;;
27666;SDS011;15074;50.940;5.282;2022-12-10T07:36:29;87.68;;;26.08;;
27666;SDS011;15074;50.940;5.282;2022-12-10T07:38:55;73.82;;;24.45;;
27666;SDS011;15074;50.940;5.282;2022-12-10T07:41:22;82.30;;;27.75;;
27666;SDS011;15074;50.940;5.282;2022-12-10T07:43:48;78.65;;;26.45;;
27666;SDS011;15074;50.940;5.282;2022-12-10T07:46:16;86.95;;;27.17;;
27666;SDS011;15074;50.940;5.282;2022-12-10T07:48:47;91.88;;;27.98;;
27666;SDS011;15074;50.940;5.282;2022-12-10T07:51:14;93.82;;;27.45;;
27666;SDS011;15074;50.940;5.282;2022-12-10T07:53:43;92.18;;;27.85;;
27666;SDS011;15074;50.940;5.282;2022-12-10T07:56:08;94.07;;;29.95;;
27666;SDS011;15074;50.940;5.282;2022-12-10T07:58:35;93.57;;;29.63;;
27666;SDS011;15074;50.940;5.282;2022-12-10T08:01:07;104.57;;;33.83;;
27666;SDS011;15074;50.940;5.282;2022-12-10T08:03:34;101.38;;;30.67;;
27666;SDS011;15074;50.940;5.282;2022-12-10T08:06:00;101.38;;;31.98;;
27666;SDS011;15074;50.940;5.282;2022-12-10T08:08:32;94.57;;;30.17;;
27666;SDS011;15074;50.940;5.282;2022-12-10T08:13:25;101.25;;;29.83;;
27666;SDS011;15074;50.940;5.282;2022-12-10T08:15:51;107.70;;;33.13;;
27666;SDS011;15074;50.940;5.282;2022-12-10T08:18:16;107.55;;;32.65;;
27666;SDS011;15074;50.940;5.282;2022-12-10T08:20:42;103.75;;;32.03;;
27666;SDS011;15074;50.940;5.282;2022-12-10T08:23:08;101.60;;;30.90;;
27666;SDS011;15074;50.940;5.282;2022-12-10T08:25:35;95.43;;;30.02;;
27666;SDS011;15074;50.940;5.282;2022-12-10T08:28:01;104.97;;;31.58;;
27666;SDS011;15074;50.940;5.282;2022-12-10T08:30:28;92.47;;;29.13;;
27666;SDS011;15074;50.940;5.282;2022-12-10T08:32:54;96.97;;;29.15;;
27666;SDS011;15074;50.940;5.282;2022-12-10T08:35:20;84.93;;;27.52;;
27666;SDS011;15074;50.940;5.282;2022-12-10T08:37:46;91.78;;;28.70;;
27666;SDS011;15074;50.940;5.282;2022-12-10T08:40:12;98.85;;;29.30;;
27666;SDS011;15074;50.940;5.282;2022-12-10T08:42:38;97.38;;;28.75;;
27666;SDS011;15074;50.940;5.282;2022-12-10T08:45:04;98.28;;;29.33;;
27666;SDS011;15074;50.940;5.282;2022-12-10T08:47:30;88.93;;;28.55;;
27666;SDS011;15074;50.940;5.282;2022-12-10T08:49:56;91.57;;;27.00;;
27666;SDS011;15074;50.940;5.282;2022-12-10T08:52:22;105.55;;;29.40;;
27666;SDS011;15074;50.940;5.282;2022-12-10T08:54:47;112.88;;;31.58;;
27666;SDS011;15074;50.940;5.282;2022-12-10T08:57:13;108.45;;;30.73;;
27666;SDS011;15074;50.940;5.282;2022-12-10T08:59:38;101.93;;;31.45;;
27666;SDS011;15074;50.940;5.282;2022-12-10T09:02:04;103.72;;;31.48;;
27666;SDS011;15074;50.940;5.282;2022-12-10T09:04:30;110.43;;;32.75;;
27666;SDS011;15074;50.940;5.282;2022-12-10T09:06:55;108.47;;;30.83;;
27666;SDS011;15074;50.940;5.282;2022-12-10T09:09:21;103.47;;;28.75;;
27666;SDS011;15074;50.940;5.282;2022-12-10T09:11:47;85.65;;;26.90;;
27666;SDS011;15074;50.940;5.282;2022-12-10T09:14:12;86.07;;;27.35;;
27666;SDS011;15074;50.940;5.282;2022-12-10T09:16:38;96.72;;;27.50;;
27666;SDS011;15074;50.940;5.282;2022-12-10T09:19:04;100.75;;;28.52;;
27666;SDS011;15074;50.940;5.282;2022-12-10T09:21:31;89.00;;;25.70;;
27666;SDS011;15074;50.940;5.282;2022-12-10T09:23:57;93.25;;;27.15;;
27666;SDS011;15074;50.940;5.282;2022-12-10T09:26:23;81.78;;;27.75;;
27666;SDS011;15074;50.940;5.282;2022-12-10T09:28:49;78.45;;;24.75;;
27666;SDS011;15074;50.940;5.282;2022-12-10T09:31:16;84.90;;;25.38;;
27666;SDS011;15074;50.940;5.282;2022-12-10T09:33:43;78.07;;;23.95;;
27666;SDS011;15074;50.940;5.282;2022-12-10T09:36:10;86.85;;;23.85;;
27666;SDS011;15074;50.940;5.282;2022-12-10T09:38:37;78.95;;;23.83;;
27666;SDS011;15074;50.940;5.282;2022-12-10T09:41:13;83.95;;;25.88;;
27666;SDS011;15074;50.940;5.282;2022-12-10T09:51:53;94.10;;;25.60;;
27666;SDS011;15074;50.940;5.282;2022-12-10T09:54:24;92.90;;;26.35;;
27666;SDS011;15074;50.940;5.282;2022-12-10T09:57:01;104.75;;;29.60;;
27666;SDS011;15074;50.940;5.282;2022-12-10T10:02:03;97.78;;;27.27;;
27666;SDS011;15074;50.940;5.282;2022-12-10T10:07:32;90.63;;;25.70;;
27666;SDS011;15074;50.940;5.282;2022-12-10T10:10:04;94.43;;;28.02;;
27666;SDS011;15074;50.940;5.282;2022-12-10T10:12:45;95.78;;;26.98;;
27666;SDS011;15074;50.940;5.282;2022-12-10T10:17:47;115.25;;;31.17;;
27666;SDS011;15074;50.940;5.282;2022-12-10T10:20:14;105.82;;;30.73;;
27666;SDS011;15074;50.940;5.282;2022-12-10T10:22:41;119.03;;;30.58;;
27666;SDS011;15074;50.940;5.282;2022-12-10T10:25:13;112.15;;;29.63;;
27666;SDS011;15074;50.940;5.282;2022-12-10T10:27:40;105.35;;;30.42;;
27666;SDS011;15074;50.940;5.282;2022-12-10T10:30:06;109.97;;;32.88;;
27666;SDS011;15074;50.940;5.282;2022-12-10T10:35:06;116.70;;;31.77;;
27666;SDS011;15074;50.940;5.282;2022-12-10T10:40:00;98.32;;;27.63;;
27666;SDS011;15074;50.940;5.282;2022-12-10T10:42:34;119.53;;;32.63;;
27666;SDS011;15074;50.940;5.282;2022-12-10T10:48:04;102.50;;;28.55;;
27666;SDS011;15074;50.940;5.282;2022-12-10T10:53:52;105.75;;;28.63;;
27666;SDS011;15074;50.940;5.282;2022-12-10T11:04:52;117.93;;;26.52;;
27666;SDS011;15074;50.940;5.282;2022-12-10T11:18:59;100.78;;;27.83;;
27666;SDS011;15074;50.940;5.282;2022-12-10T11:21:31;99.72;;;26.48;;
27666;SDS011;15074;50.940;5.282;2022-12-10T11:23:59;107.20;;;27.45;;
27666;SDS011;15074;50.940;5.282;2022-12-10T11:51:48;97.45;;;24.30;;
27666;SDS011;15074;50.940;5.282;2022-12-10T11:54:52;91.72;;;25.30;;
27666;SDS011;15074;50.940;5.282;2022-12-10T12:40:41;80.72;;;21.30;;
27666;SDS011;15074;50.940;5.282;2022-12-10T12:43:16;81.40;;;21.35;;
27666;SDS011;15074;50.940;5.282;2022-12-10T12:45:46;82.05;;;22.23;;
27666;SDS011;15074;50.940;5.282;2022-12-10T12:51:00;81.07;;;24.90;;
27666;SDS011;15074;50.940;5.282;2022-12-10T12:53:30;80.65;;;24.58;;
27666;SDS011;15074;50.940;5.282;2022-12-10T13:04:46;78.43;;;22.13;;
27666;SDS011;15074;50.940;5.282;2022-12-10T13:09:50;81.22;;;21.13;;
27666;SDS011;15074;50.940;5.282;2022-12-10T13:12:49;85.18;;;22.17;;
27666;SDS011;15074;50.940;5.282;2022-12-10T13:27:15;69.25;;;21.95;;
27666;SDS011;15074;50.940;5.282;2022-12-10T13:29:53;78.18;;;22.67;;
27666;SDS011;15074;50.940;5.282;2022-12-10T13:33:18;96.60;;;23.85;;
27666;SDS011;15074;50.940;5.282;2022-12-10T13:35:56;82.00;;;25.20;;
27666;SDS011;15074;50.940;5.282;2022-12-10T13:44:59;94.18;;;26.17;;
27666;SDS011;15074;50.940;5.282;2022-12-10T13:53:06;60.38;;;20.80;;
27666;SDS011;15074;50.940;5.282;2022-12-10T14:01:48;77.70;;;23.27;;
27666;SDS011;15074;50.940;5.282;2022-12-10T14:07:03;93.93;;;23.42;;
27666;SDS011;15074;50.940;5.282;2022-12-10T14:09:31;83.97;;;23.73;;
27666;SDS011;15074;50.940;5.282;2022-12-10T14:12:43;72.40;;;22.92;;
27666;SDS011;15074;50.940;5.282;2022-12-10T14:15:02;65.20;;;21.83;;
27666;SDS011;15074;50.940;5.282;2022-12-10T14:17:34;75.68;;;21.30;;
27666;SDS011;15074;50.940;5.282;2022-12-10T14:20:04;67.93;;;23.35;;
27666;SDS011;15074;50.940;5.282;2022-12-10T14:22:34;70.82;;;23.65;;
27666;SDS011;15074;50.940;5.282;2022-12-10T14:25:04;75.18;;;24.52;;
27666;SDS011;15074;50.940;5.282;2022-12-10T14:27:35;83.90;;;22.63;;
27666;SDS011;15074;50.940;5.282;2022-12-10T14:32:47;69.93;;;21.98;;
27666;SDS011;15074;50.940;5.282;2022-12-10T14:35:18;89.95;;;24.23;;
27666;SDS011;15074;50.940;5.282;2022-12-10T14:37:48;81.68;;;25.05;;
27666;SDS011;15074;50.940;5.282;2022-12-10T14:40:36;76.85;;;24.48;;
27666;SDS011;15074;50.940;5.282;2022-12-10T14:43:05;75.40;;;25.27;;
27666;SDS011;15074;50.940;5.282;2022-12-10T14:46:19;62.72;;;22.48;;
27666;SDS011;15074;50.940;5.282;2022-12-10T14:48:27;62.47;;;23.70;;
27666;SDS011;15074;50.940;5.282;2022-12-10T14:50:53;66.78;;;23.48;;
27666;SDS011;15074;50.940;5.282;2022-12-10T14:53:25;70.40;;;24.35;;
27666;SDS011;15074;50.940;5.282;2022-12-10T14:56:04;74.43;;;25.25;;
27666;SDS011;15074;50.940;5.282;2022-12-10T14:58:39;76.35;;;23.92;;
27666;SDS011;15074;50.940;5.282;2022-12-10T15:01:44;64.22;;;22.30;;
27666;SDS011;15074;50.940;5.282;2022-12-10T15:04:05;64.10;;;22.52;;
27666;SDS011;15074;50.940;5.282;2022-12-10T15:06:36;64.65;;;20.85;;
27666;SDS011;15074;50.940;5.282;2022-12-10T15:09:04;59.55;;;21.05;;
27666;SDS011;15074;50.940;5.282;2022-12-10T15:14:22;80.45;;;26.85;;
27666;SDS011;15074;50.940;5.282;2022-12-10T15:16:49;67.88;;;23.35;;
27666;SDS011;15074;50.940;5.282;2022-12-10T15:19:30;76.18;;;23.77;;
27666;SDS011;15074;50.940;5.282;2022-12-10T15:22:02;82.90;;;24.42;;
27666;SDS011;15074;50.940;5.282;2022-12-10T15:24:41;96.80;;;25.52;;
27666;SDS011;15074;50.940;5.282;2022-12-10T15:29:44;88.57;;;26.85;;
27666;SDS011;15074;50.940;5.282;2022-12-10T15:32:14;82.82;;;23.95;;
27666;SDS011;15074;50.940;5.282;2022-12-10T15:34:46;80.05;;;25.95;;
27666;SDS011;15074;50.940;5.282;2022-12-10T15:37:17;68.90;;;21.30;;
27666;SDS011;15074;50.940;5.282;2022-12-10T15:39:59;80.43;;;24.48;;
27666;SDS011;15074;50.940;5.282;2022-12-10T15:45:48;93.38;;;26.27;;
27666;SDS011;15074;50.940;5.282;2022-12-10T15:48:07;77.40;;;24.55;;
27666;SDS011;15074;50.940;5.282;2022-12-10T15:50:49;72.18;;;24.42;;
27666;SDS011;15074;50.940;5.282;2022-12-10T15:53:27;94.53;;;28.98;;
27666;SDS011;15074;50.940;5.282;2022-12-10T15:56:00;90.10;;;25.02;;
27666;SDS011;15074;50.940;5.282;2022-12-10T15:58:27;79.53;;;24.40;;
27666;SDS011;15074;50.940;5.282;2022-12-10T16:00:53;86.40;;;27.30;;
27666;SDS011;15074;50.940;5.282;2022-12-10T16:06:18;84.72;;;25.77;;
27666;SDS011;15074;50.940;5.282;2022-12-10T16:08:44;81.00;;;25.65;;
27666;SDS011;15074;50.940;5.282;2022-12-10T16:11:31;82.97;;;24.85;;
27666;SDS011;15074;50.940;5.282;2022-12-10T16:13:57;84.05;;;27.63;;
27666;SDS011;15074;50.940;5.282;2022-12-10T16:16:23;70.32;;;24.23;;
27666;SDS011;15074;50.940;5.282;2022-12-10T16:18:49;90.13;;;23.55;;
27666;SDS011;15074;50.940;5.282;2022-12-10T17:21:13;90.25;;;25.73;;
27666;SDS011;15074;50.940;5.282;2022-12-10T17:40:38;80.22;;;23.35;;
27666;SDS011;15074;50.940;5.282;2022-12-10T17:43:03;91.40;;;24.65;;
27666;SDS011;15074;50.940;5.282;2022-12-10T17:45:29;90.13;;;26.33;;
27666;SDS011;15074;50.940;5.282;2022-12-10T17:47:55;102.05;;;26.42;;
27666;SDS011;15074;50.940;5.282;2022-12-10T17:55:55;81.97;;;24.67;;
27666;SDS011;15074;50.940;5.282;2022-12-10T17:58:23;98.68;;;25.73;;
27666;SDS011;15074;50.940;5.282;2022-12-10T18:04:06;93.82;;;24.40;;
27666;SDS011;15074;50.940;5.282;2022-12-10T18:06:31;104.65;;;26.80;;
27666;SDS011;15074;50.940;5.282;2022-12-10T18:11:41;103.18;;;27.60;;
27666;SDS011;15074;50.940;5.282;2022-12-10T18:39:31;92.60;;;23.92;;
27666;SDS011;15074;50.940;5.282;2022-12-10T18:41:59;91.03;;;26.80;;
27666;SDS011;15074;50.940;5.282;2022-12-10T18:44:26;100.38;;;24.90;;
27666;SDS011;15074;50.940;5.282;2022-12-10T18:46:53;86.50;;;26.58;;
27666;SDS011;15074;50.940;5.282;2022-12-10T18:49:20;85.57;;;22.48;;
27666;SDS011;15074;50.940;5.282;2022-12-10T18:54:16;88.72;;;25.23;;
27666;SDS011;15074;50.940;5.282;2022-12-10T18:56:42;83.88;;;22.13;;
27666;SDS011;15074;50.940;5.282;2022-12-10T18:59:13;68.90;;;19.25;;
27666;SDS011;15074;50.940;5.282;2022-12-10T19:01:40;77.75;;;23.35;;
27666;SDS011;15074;50.940;5.282;2022-12-10T19:04:06;72.97;;;20.55;;
27666;SDS011;15074;50.940;5.282;2022-12-10T19:12:44;74.75;;;22.20;;
27666;SDS011;15074;50.940;5.282;2022-12-10T19:15:11;83.05;;;24.38;;
27666;SDS011;15074;50.940;5.282;2022-12-10T19:21:00;81.35;;;24.42;;
27666;SDS011;15074;50.940;5.282;2022-12-10T19:29:22;82.70;;;24.45;;
27666;SDS011;15074;50.940;5.282;2022-12-10T19:31:48;68.90;;;22.05;;
27666;SDS011;15074;50.940;5.282;2022-12-10T19:51:24;76.18;;;24.08;;
27666;SDS011;15074;50.940;5.282;2022-12-10T19:53:51;77.95;;;24.33;;
27666;SDS011;15074;50.940;5.282;2022-12-10T21:09:43;87.60;;;24.75;;
27666;SDS011;15074;50.940;5.282;2022-12-10T21:12:09;84.10;;;24.52;;
27666;SDS011;15074;50.940;5.282;2022-12-10T21:20:48;81.32;;;24.05;;
27666;SDS011;15074;50.940;5.282;2022-12-10T21:29:40;72.90;;;24.98;;
27666;SDS011;15074;50.940;5.282;2022-12-10T21:32:05;66.75;;;21.17;;
27666;SDS011;15074;50.940;5.282;2022-12-10T21:37:15;68.03;;;23.10;;
27666;SDS011;15074;50.940;5.282;2022-12-10T21:39:41;60.00;;;22.08;;
27666;SDS011;15074;50.940;5.282;2022-12-10T21:42:09;70.55;;;24.15;;
